LAN140 SCEL-SPJC
Flight info
| Callsign | LAN140 |
|---|---|
| Flight time | N/A |
| Altitude | 34000 |
| Route | DONTI UT131 ATEDA UL302 ASEPU/N0460F360 UL302 ILMAR |
| Aircraft | A320/M-SDE3FGHIRWY/LB1 |
Departure
| Time | 2026-04-30 13:45 |
|---|---|
| Airport | Comodoro Arturo Merino Benítez International Airport (SCEL) |
Arrival
| Time | N/A |
|---|---|
| Airport | Jorge Chávez International Airport (SPJC) |
| Time | Latitude | Longitude | Altitude | Speed | Heading |
|---|---|---|---|---|---|
| 2026-04-30 12:36 | -33.39937 | -70.79800 | 1565 ft | 0 kts | 176° |
| 2026-04-30 13:33 | -33.39919 | -70.79801 | 1564 ft | 4 kts | 180° |
| 2026-04-30 13:33 | -33.39867 | -70.79789 | 1564 ft | 4 kts | 224° |
| 2026-04-30 13:34 | -33.39859 | -70.79772 | 1564 ft | 1 kts | 267° |
| 2026-04-30 13:34 | -33.39858 | -70.79768 | 1564 ft | 0 kts | 267° |
| 2026-04-30 13:36 | -33.39859 | -70.79778 | 1564 ft | 5 kts | 267° |
| 2026-04-30 13:36 | -33.39846 | -70.79966 | 1565 ft | 11 kts | 267° |
| 2026-04-30 13:37 | -33.39820 | -70.80027 | 1566 ft | 7 kts | 332° |
| 2026-04-30 13:37 | -33.39751 | -70.80034 | 1566 ft | 3 kts | 6° |
| 2026-04-30 13:38 | -33.39721 | -70.80032 | 1566 ft | 3 kts | 359° |
| 2026-04-30 13:38 | -33.39668 | -70.80035 | 1566 ft | 8 kts | 356° |
| 2026-04-30 13:38 | -33.39518 | -70.80046 | 1566 ft | 16 kts | 357° |
| 2026-04-30 13:39 | -33.39291 | -70.80056 | 1566 ft | 17 kts | 358° |
| 2026-04-30 13:39 | -33.39051 | -70.80073 | 1567 ft | 18 kts | 356° |
| 2026-04-30 13:40 | -33.38928 | -70.80079 | 1567 ft | 18 kts | 358° |
| 2026-04-30 13:40 | -33.38801 | -70.80085 | 1567 ft | 19 kts | 358° |
| 2026-04-30 13:40 | -33.38712 | -70.80089 | 1567 ft | 19 kts | 357° |
| 2026-04-30 13:40 | -33.38578 | -70.80096 | 1567 ft | 20 kts | 357° |
| 2026-04-30 13:41 | -33.38439 | -70.80104 | 1566 ft | 20 kts | 357° |
| 2026-04-30 13:41 | -33.38294 | -70.80110 | 1566 ft | 21 kts | 358° |
| 2026-04-30 13:41 | -33.38145 | -70.80119 | 1566 ft | 22 kts | 357° |
| 2026-04-30 13:41 | -33.37993 | -70.80126 | 1566 ft | 22 kts | 357° |
| 2026-04-30 13:42 | -33.37836 | -70.80135 | 1566 ft | 23 kts | 358° |
| 2026-04-30 13:42 | -33.37678 | -70.80143 | 1566 ft | 23 kts | 357° |
| 2026-04-30 13:42 | -33.37356 | -70.80160 | 1567 ft | 23 kts | 358° |
| 2026-04-30 13:43 | -33.37196 | -70.80167 | 1567 ft | 15 kts | 358° |
| 2026-04-30 13:43 | -33.37135 | -70.80189 | 1567 ft | 8 kts | 324° |
| 2026-04-30 13:43 | -33.37110 | -70.80228 | 1568 ft | 4 kts | 294° |
| 2026-04-30 13:43 | -33.37102 | -70.80267 | 1570 ft | 12 kts | 277° |
| 2026-04-30 13:44 | -33.37154 | -70.80366 | 1574 ft | 19 kts | 204° |
| 2026-04-30 13:44 | -33.37393 | -70.80359 | 1574 ft | 64 kts | 177° |
| 2026-04-30 13:44 | -33.38055 | -70.80328 | 1571 ft | 124 kts | 177° |
| 2026-04-30 13:44 | -33.39082 | -70.80271 | 1575 ft | 170 kts | 177° |
| 2026-04-30 13:45 | -33.41550 | -70.80156 | 2724 ft | 178 kts | 179° |
| 2026-04-30 13:45 | -33.42789 | -70.80113 | 3383 ft | 178 kts | 179° |
| 2026-04-30 13:45 | -33.44027 | -70.80074 | 4024 ft | 176 kts | 179° |
| 2026-04-30 13:46 | -33.45238 | -70.80042 | 4600 ft | 173 kts | 181° |
| 2026-04-30 13:46 | -33.46406 | -70.80470 | 4836 ft | 188 kts | 225° |
| 2026-04-30 13:46 | -33.46990 | -70.81895 | 5035 ft | 203 kts | 265° |
| 2026-04-30 13:46 | -33.46992 | -70.83673 | 5183 ft | 225 kts | 275° |
| 2026-04-30 13:47 | -33.46872 | -70.85612 | 5395 ft | 245 kts | 275° |
| 2026-04-30 13:47 | -33.46781 | -70.87749 | 5675 ft | 268 kts | 272° |
| 2026-04-30 13:47 | -33.46767 | -70.90056 | 6310 ft | 277 kts | 270° |
| 2026-04-30 13:47 | -33.46832 | -70.92373 | 7038 ft | 280 kts | 269° |
| 2026-04-30 13:48 | -33.46887 | -70.94708 | 7798 ft | 281 kts | 278° |
| 2026-04-30 13:48 | -33.46387 | -70.96939 | 8528 ft | 278 kts | 299° |
| 2026-04-30 13:48 | -33.45252 | -70.98803 | 9118 ft | 278 kts | 320° |
| 2026-04-30 13:48 | -33.43633 | -71.00010 | 9951 ft | 275 kts | 339° |
| 2026-04-30 13:49 | -33.41786 | -71.00766 | 10352 ft | 290 kts | 341° |
| 2026-04-30 13:49 | -33.39792 | -71.01549 | 10478 ft | 313 kts | 341° |
| 2026-04-30 13:49 | -33.37652 | -71.02381 | 10689 ft | 332 kts | 342° |
| 2026-04-30 13:49 | -33.35430 | -71.03242 | 11182 ft | 339 kts | 341° |
| 2026-04-30 13:50 | -33.33173 | -71.04119 | 11764 ft | 343 kts | 341° |
| 2026-04-30 13:50 | -33.28598 | -71.05905 | 13048 ft | 349 kts | 341° |
| 2026-04-30 13:50 | -33.26276 | -71.06813 | 13657 ft | 353 kts | 341° |
| 2026-04-30 13:51 | -33.23929 | -71.07732 | 14197 ft | 357 kts | 341° |
| 2026-04-30 13:51 | -33.21560 | -71.08659 | 14727 ft | 360 kts | 340° |
| 2026-04-30 13:51 | -33.19168 | -71.09594 | 15271 ft | 363 kts | 340° |
| 2026-04-30 13:51 | -33.16754 | -71.10533 | 15809 ft | 367 kts | 340° |
| 2026-04-30 13:52 | -33.14320 | -71.11482 | 16324 ft | 370 kts | 340° |
| 2026-04-30 13:52 | -33.11858 | -71.12440 | 16828 ft | 374 kts | 340° |
| 2026-04-30 13:52 | -33.09375 | -71.13406 | 17335 ft | 377 kts | 340° |
| 2026-04-30 13:52 | -33.06862 | -71.14385 | 17825 ft | 381 kts | 340° |
| 2026-04-30 13:53 | -33.04331 | -71.15371 | 18316 ft | 385 kts | 339° |
| 2026-04-30 13:53 | -33.01776 | -71.16366 | 18745 ft | 387 kts | 339° |
| 2026-04-30 13:53 | -32.99174 | -71.17376 | 19203 ft | 389 kts | 339° |
| 2026-04-30 13:53 | -32.96590 | -71.18377 | 19654 ft | 391 kts | 339° |
| 2026-04-30 13:54 | -32.93963 | -71.19254 | 20094 ft | 395 kts | 345° |
| 2026-04-30 13:54 | -32.91265 | -71.19914 | 20537 ft | 397 kts | 345° |
| 2026-04-30 13:54 | -32.88549 | -71.20576 | 20965 ft | 399 kts | 345° |
| 2026-04-30 13:54 | -32.85827 | -71.21240 | 21382 ft | 401 kts | 345° |
| 2026-04-30 13:55 | -32.83084 | -71.21908 | 21794 ft | 403 kts | 345° |
| 2026-04-30 13:55 | -32.80330 | -71.22577 | 22220 ft | 405 kts | 345° |
| 2026-04-30 13:55 | -32.77567 | -71.23248 | 22618 ft | 407 kts | 345° |
| 2026-04-30 13:55 | -32.74779 | -71.23929 | 23016 ft | 409 kts | 345° |
| 2026-04-30 13:56 | -32.71984 | -71.24615 | 23409 ft | 411 kts | 345° |
| 2026-04-30 13:56 | -32.69180 | -71.25301 | 23741 ft | 413 kts | 345° |
| 2026-04-30 13:56 | -32.66356 | -71.25993 | 24053 ft | 415 kts | 345° |
| 2026-04-30 13:56 | -32.63520 | -71.26686 | 24353 ft | 417 kts | 344° |
| 2026-04-30 13:57 | -32.60667 | -71.27382 | 24678 ft | 419 kts | 345° |
| 2026-04-30 13:57 | -32.57807 | -71.28074 | 25005 ft | 420 kts | 345° |
| 2026-04-30 13:57 | -32.54943 | -71.28766 | 25319 ft | 422 kts | 345° |
| 2026-04-30 13:57 | -32.52018 | -71.29471 | 25607 ft | 424 kts | 345° |
| 2026-04-30 13:58 | -32.49159 | -71.30162 | 25897 ft | 426 kts | 345° |
| 2026-04-30 13:58 | -32.43294 | -71.31582 | 26506 ft | 429 kts | 345° |
| 2026-04-30 13:58 | -32.40363 | -71.32293 | 26797 ft | 431 kts | 345° |
| 2026-04-30 13:59 | -32.37418 | -71.33005 | 27075 ft | 433 kts | 345° |
| 2026-04-30 13:59 | -32.34462 | -71.33720 | 27348 ft | 435 kts | 345° |
| 2026-04-30 13:59 | -32.31494 | -71.34438 | 27610 ft | 436 kts | 345° |
| 2026-04-30 13:59 | -32.28513 | -71.35158 | 27878 ft | 438 kts | 345° |
| 2026-04-30 14:00 | -32.25521 | -71.35880 | 28133 ft | 439 kts | 345° |
| 2026-04-30 14:00 | -32.19513 | -71.37327 | 28618 ft | 443 kts | 345° |
| 2026-04-30 14:00 | -32.16486 | -71.38056 | 28853 ft | 444 kts | 345° |
| 2026-04-30 14:01 | -32.13412 | -71.38796 | 29088 ft | 446 kts | 345° |
| 2026-04-30 14:01 | -32.10366 | -71.39529 | 29324 ft | 448 kts | 345° |
| 2026-04-30 14:01 | -32.07314 | -71.40263 | 29630 ft | 447 kts | 345° |
| 2026-04-30 14:01 | -32.04269 | -71.40996 | 29995 ft | 446 kts | 345° |
| 2026-04-30 14:02 | -32.01230 | -71.41724 | 30300 ft | 445 kts | 345° |
| 2026-04-30 14:02 | -31.98198 | -71.42446 | 30613 ft | 444 kts | 345° |
| 2026-04-30 14:02 | -31.95174 | -71.43167 | 30914 ft | 443 kts | 345° |
| 2026-04-30 14:02 | -31.92161 | -71.43887 | 31219 ft | 441 kts | 345° |
| 2026-04-30 14:03 | -31.89157 | -71.44606 | 31540 ft | 440 kts | 345° |
| 2026-04-30 14:03 | -31.86164 | -71.45325 | 31854 ft | 438 kts | 345° |
| 2026-04-30 14:03 | -31.83182 | -71.46039 | 32166 ft | 437 kts | 345° |
| 2026-04-30 14:03 | -31.80207 | -71.46749 | 32486 ft | 435 kts | 345° |
| 2026-04-30 14:04 | -31.77242 | -71.47457 | 32811 ft | 434 kts | 345° |
| 2026-04-30 14:04 | -31.74290 | -71.48163 | 33126 ft | 432 kts | 345° |
| 2026-04-30 14:04 | -31.71348 | -71.48870 | 33427 ft | 431 kts | 345° |
| 2026-04-30 14:04 | -31.68416 | -71.49575 | 33718 ft | 430 kts | 345° |
| 2026-04-30 14:05 | -31.65487 | -71.50274 | 33961 ft | 429 kts | 345° |
| 2026-04-30 14:05 | -31.62562 | -71.50968 | 34020 ft | 428 kts | 345° |
| 2026-04-30 14:05 | -31.56688 | -71.52359 | 34021 ft | 427 kts | 345° |
| 2026-04-30 14:06 | -31.47942 | -71.54442 | 34023 ft | 428 kts | 345° |
| 2026-04-30 14:07 | -31.39187 | -71.56520 | 34018 ft | 428 kts | 345° |
| 2026-04-30 14:08 | -31.30416 | -71.58596 | 34015 ft | 429 kts | 345° |
| 2026-04-30 14:08 | -31.21638 | -71.60671 | 34012 ft | 429 kts | 345° |
| 2026-04-30 14:09 | -31.15786 | -71.62053 | 34014 ft | 429 kts | 345° |
| 2026-04-30 14:10 | -31.06995 | -71.64117 | 34012 ft | 430 kts | 345° |
| 2026-04-30 14:10 | -31.02084 | -71.65277 | 34009 ft | 430 kts | 345° |
| 2026-04-30 14:11 | -30.96215 | -71.66659 | 34007 ft | 431 kts | 345° |
| 2026-04-30 14:11 | -30.90330 | -71.68033 | 34017 ft | 431 kts | 345° |
| 2026-04-30 14:12 | -30.84446 | -71.69404 | 34017 ft | 432 kts | 345° |
| 2026-04-30 14:12 | -30.78556 | -71.70788 | 34021 ft | 432 kts | 345° |
| 2026-04-30 14:13 | -30.72662 | -71.72170 | 34022 ft | 432 kts | 345° |
| 2026-04-30 14:13 | -30.66721 | -71.73556 | 34024 ft | 432 kts | 345° |
| 2026-04-30 14:14 | -30.60819 | -71.74929 | 34022 ft | 433 kts | 345° |
| 2026-04-30 14:14 | -30.54919 | -71.76300 | 34026 ft | 433 kts | 345° |
| 2026-04-30 14:15 | -30.49014 | -71.77675 | 34023 ft | 433 kts | 345° |
| 2026-04-30 14:15 | -30.43100 | -71.79049 | 34021 ft | 433 kts | 345° |
| 2026-04-30 14:16 | -30.37198 | -71.80414 | 34026 ft | 433 kts | 345° |
| 2026-04-30 14:16 | -30.31279 | -71.81780 | 34019 ft | 433 kts | 345° |
| 2026-04-30 14:17 | -30.25370 | -71.83146 | 34029 ft | 434 kts | 345° |
| 2026-04-30 14:17 | -30.19444 | -71.84516 | 34030 ft | 434 kts | 345° |
| 2026-04-30 14:18 | -30.13483 | -71.85892 | 34027 ft | 434 kts | 345° |
| 2026-04-30 14:18 | -30.04598 | -71.87937 | 34035 ft | 434 kts | 345° |
| 2026-04-30 14:19 | -29.95717 | -71.89988 | 34036 ft | 434 kts | 345° |
| 2026-04-30 14:20 | -29.89794 | -71.91343 | 34031 ft | 434 kts | 345° |
| 2026-04-30 14:20 | -29.80901 | -71.93369 | 34034 ft | 434 kts | 345° |
| 2026-04-30 14:21 | -29.74977 | -71.94726 | 34038 ft | 434 kts | 345° |
| 2026-04-30 14:22 | -29.66099 | -71.96751 | 34035 ft | 433 kts | 345° |
| 2026-04-30 14:22 | -29.57194 | -71.98793 | 34033 ft | 433 kts | 345° |
| 2026-04-30 14:23 | -29.45362 | -72.01485 | 34033 ft | 433 kts | 345° |
| 2026-04-30 14:24 | -29.36496 | -72.03487 | 34031 ft | 433 kts | 345° |
| 2026-04-30 14:25 | -29.24668 | -72.06163 | 34034 ft | 433 kts | 345° |
| 2026-04-30 14:26 | -29.15790 | -72.08165 | 34042 ft | 434 kts | 345° |
| 2026-04-30 14:27 | -29.06916 | -72.10161 | 34040 ft | 433 kts | 345° |
| 2026-04-30 14:27 | -29.00961 | -72.11511 | 34039 ft | 433 kts | 345° |
| 2026-04-30 14:28 | -28.92093 | -72.13501 | 34039 ft | 433 kts | 345° |
| 2026-04-30 14:28 | -28.86184 | -72.14828 | 34039 ft | 433 kts | 345° |
| 2026-04-30 14:29 | -28.75360 | -72.17256 | 34042 ft | 433 kts | 345° |
| 2026-04-30 14:31 | -28.59578 | -72.20779 | 34043 ft | 433 kts | 345° |
| 2026-04-30 14:31 | -28.50707 | -72.22768 | 34047 ft | 433 kts | 345° |
| 2026-04-30 14:32 | -28.41801 | -72.24748 | 34045 ft | 433 kts | 345° |
| 2026-04-30 14:33 | -28.35889 | -72.26055 | 34041 ft | 433 kts | 345° |
| 2026-04-30 14:33 | -28.27031 | -72.28029 | 34033 ft | 432 kts | 345° |
| 2026-04-30 14:34 | -28.21127 | -72.29341 | 34035 ft | 432 kts | 345° |
| 2026-04-30 14:34 | -28.15224 | -72.30641 | 34034 ft | 432 kts | 345° |
| 2026-04-30 14:35 | -28.06371 | -72.32595 | 34033 ft | 432 kts | 345° |
| 2026-04-30 14:36 | -28.00468 | -72.33905 | 34036 ft | 432 kts | 345° |
| 2026-04-30 14:36 | -27.94519 | -72.35220 | 34038 ft | 433 kts | 345° |
| 2026-04-30 14:37 | -27.88610 | -72.36525 | 34057 ft | 433 kts | 345° |
| 2026-04-30 14:37 | -27.82707 | -72.37827 | 34044 ft | 433 kts | 345° |
| 2026-04-30 14:38 | -27.76799 | -72.39120 | 34047 ft | 432 kts | 345° |
| 2026-04-30 14:38 | -27.70889 | -72.40422 | 34041 ft | 432 kts | 345° |
| 2026-04-30 14:39 | -27.64990 | -72.41721 | 34046 ft | 432 kts | 345° |
| 2026-04-30 14:39 | -27.59075 | -72.43020 | 34044 ft | 433 kts | 345° |
| 2026-04-30 14:40 | -27.50299 | -72.45254 | 34044 ft | 429 kts | 339° |
| 2026-04-30 14:40 | -27.45512 | -72.46908 | 34046 ft | 430 kts | 339° |
| 2026-04-30 14:41 | -27.39796 | -72.48881 | 34045 ft | 430 kts | 339° |
| 2026-04-30 14:41 | -27.34081 | -72.50844 | 34039 ft | 429 kts | 339° |
| 2026-04-30 14:42 | -27.28369 | -72.52804 | 34039 ft | 429 kts | 339° |
| 2026-04-30 14:42 | -27.22658 | -72.54765 | 34035 ft | 429 kts | 339° |
| 2026-04-30 14:43 | -27.16946 | -72.56723 | 34037 ft | 429 kts | 339° |
| 2026-04-30 14:43 | -27.11192 | -72.58691 | 34038 ft | 429 kts | 339° |
| 2026-04-30 14:44 | -27.05511 | -72.60632 | 34033 ft | 430 kts | 339° |
| 2026-04-30 14:44 | -26.99757 | -72.62599 | 34037 ft | 430 kts | 339° |
| 2026-04-30 14:45 | -26.94044 | -72.64556 | 34037 ft | 430 kts | 339° |
| 2026-04-30 14:45 | -26.88317 | -72.66507 | 34037 ft | 430 kts | 339° |
| 2026-04-30 14:46 | -26.82592 | -72.68449 | 34037 ft | 430 kts | 339° |
| 2026-04-30 14:46 | -26.76867 | -72.70391 | 34035 ft | 430 kts | 339° |
| 2026-04-30 14:47 | -26.71148 | -72.72337 | 34033 ft | 430 kts | 339° |
| 2026-04-30 14:47 | -26.65417 | -72.74288 | 34037 ft | 430 kts | 339° |
| 2026-04-30 14:48 | -26.59689 | -72.76228 | 34034 ft | 430 kts | 339° |
| 2026-04-30 14:48 | -26.53956 | -72.78168 | 34037 ft | 430 kts | 339° |
| 2026-04-30 14:49 | -26.48187 | -72.80120 | 34037 ft | 431 kts | 339° |
| 2026-04-30 14:49 | -26.42486 | -72.82049 | 34033 ft | 431 kts | 339° |
| 2026-04-30 14:50 | -26.33837 | -72.84964 | 34032 ft | 431 kts | 339° |
| 2026-04-30 14:51 | -26.25224 | -72.87882 | 34032 ft | 431 kts | 339° |
| 2026-04-30 14:52 | -26.16601 | -72.90783 | 34032 ft | 432 kts | 339° |
| 2026-04-30 14:52 | -26.07968 | -72.93675 | 34034 ft | 432 kts | 339° |
| 2026-04-30 14:53 | -25.99333 | -72.96569 | 34034 ft | 432 kts | 339° |
| 2026-04-30 14:54 | -25.87773 | -73.00448 | 34037 ft | 432 kts | 339° |
| 2026-04-30 14:55 | -25.79131 | -73.03334 | 34030 ft | 433 kts | 339° |
| 2026-04-30 14:56 | -25.67589 | -73.07188 | 34033 ft | 433 kts | 339° |
| 2026-04-30 14:57 | -25.58931 | -73.10071 | 34033 ft | 433 kts | 339° |
| 2026-04-30 14:58 | -25.47377 | -73.13909 | 34031 ft | 434 kts | 339° |
| 2026-04-30 14:58 | -25.38672 | -73.16808 | 34029 ft | 434 kts | 339° |
| 2026-04-30 15:00 | -25.24203 | -73.21595 | 34034 ft | 434 kts | 339° |
| 2026-04-30 15:01 | -25.12617 | -73.25430 | 34034 ft | 435 kts | 339° |
| 2026-04-30 15:01 | -25.03917 | -73.28296 | 34039 ft | 435 kts | 339° |
| 2026-04-30 15:02 | -24.98114 | -73.30204 | 34034 ft | 435 kts | 339° |
| 2026-04-30 15:03 | -24.83560 | -73.34992 | 34032 ft | 436 kts | 339° |
| 2026-04-30 15:04 | -24.69018 | -73.39776 | 34032 ft | 436 kts | 339° |
| 2026-04-30 15:06 | -24.54462 | -73.44543 | 34032 ft | 437 kts | 339° |
| 2026-04-30 15:07 | -24.42819 | -73.48346 | 34036 ft | 437 kts | 339° |
| 2026-04-30 15:08 | -24.31127 | -73.52153 | 34039 ft | 437 kts | 339° |
| 2026-04-30 15:09 | -24.16576 | -73.56880 | 34036 ft | 436 kts | 339° |
| 2026-04-30 15:10 | -24.04947 | -73.60660 | 34041 ft | 436 kts | 339° |
| 2026-04-30 15:11 | -23.88458 | -73.66009 | 34034 ft | 435 kts | 338° |
| 2026-04-30 15:13 | -23.73944 | -73.70711 | 34032 ft | 435 kts | 338° |
| 2026-04-30 15:14 | -23.53635 | -73.77276 | 34037 ft | 435 kts | 338° |
| 2026-04-30 15:17 | -23.27485 | -73.85689 | 34033 ft | 435 kts | 338° |
| 2026-04-30 15:19 | -23.04314 | -73.93113 | 34036 ft | 433 kts | 338° |